createdAt,value
2017-09-17T00:00:40.859Z,8.10
2017-09-17T00:01:40.826Z,8.08
2017-09-17T00:02:40.827Z,8.06
2017-09-17T00:03:40.758Z,8.10
2017-09-17T00:04:40.721Z,8.15
2017-09-17T00:05:40.686Z,8.12
2017-09-17T00:06:40.655Z,8.10
2017-09-17T00:07:40.620Z,8.06
2017-09-17T00:08:40.585Z,8.10
2017-09-17T00:09:40.550Z,8.10
2017-09-17T00:10:40.516Z,7.95
2017-09-17T00:11:40.482Z,8.00
2017-09-17T00:12:40.447Z,8.05
2017-09-17T00:13:40.413Z,8.06
2017-09-17T00:14:40.378Z,8.05
2017-09-17T00:15:40.343Z,8.10
2017-09-17T00:16:40.309Z,8.05
2017-09-17T00:17:40.275Z,8.06
2017-09-17T00:18:40.240Z,8.06
2017-09-17T00:19:40.205Z,8.15
2017-09-17T00:20:40.171Z,8.10
2017-09-17T00:21:40.137Z,8.09
2017-09-17T00:22:40.102Z,8.18
2017-09-17T00:23:40.079Z,8.15
2017-09-17T00:24:40.033Z,8.18
2017-09-17T00:25:39.997Z,8.13
2017-09-17T00:26:39.965Z,8.12
2017-09-17T00:27:39.929Z,8.12
2017-09-17T00:28:39.895Z,8.06
2017-09-17T00:29:39.860Z,8.18
2017-09-17T00:30:39.827Z,8.10
2017-09-17T00:31:39.792Z,8.06
2017-09-17T00:32:39.758Z,8.01
2017-09-17T00:33:39.726Z,8.06
2017-09-17T00:34:39.689Z,8.01
2017-09-17T00:35:39.654Z,8.00
2017-09-17T00:36:39.623Z,8.05
2017-09-17T00:37:39.585Z,8.05
2017-09-17T00:38:39.551Z,7.95
2017-09-17T00:39:39.513Z,8.03
2017-09-17T00:40:39.481Z,8.03
2017-09-17T00:41:39.446Z,8.06
2017-09-17T00:42:39.412Z,8.01
2017-09-17T00:43:39.378Z,8.00
2017-09-17T00:44:39.343Z,8.00
2017-09-17T00:45:39.307Z,8.01
2017-09-17T00:46:39.275Z,8.05
2017-09-17T00:47:39.240Z,8.00
2017-09-17T00:48:39.204Z,8.03
2017-09-17T00:49:39.170Z,8.01
2017-09-17T00:50:39.135Z,8.01
2017-09-17T00:51:39.102Z,7.98
2017-09-17T00:52:39.066Z,8.03
2017-09-17T00:53:39.032Z,7.93
2017-09-17T00:54:38.997Z,7.90
2017-09-17T00:55:38.963Z,7.83
2017-09-17T00:56:38.927Z,7.82
2017-09-17T00:57:38.894Z,7.72
2017-09-17T00:58:38.856Z,7.72
2017-09-17T00:59:38.824Z,7.57
2017-09-17T01:00:38.791Z,7.66
2017-09-17T01:01:38.754Z,7.60
2017-09-17T01:02:38.749Z,7.54
2017-09-17T01:03:38.685Z,7.57
2017-09-17T01:04:38.648Z,7.58
2017-09-17T01:05:38.615Z,7.53
2017-09-17T01:06:38.580Z,7.56
2017-09-17T01:07:38.546Z,7.53
2017-09-17T01:08:38.511Z,7.48
2017-09-17T01:09:38.474Z,7.50
2017-09-17T01:10:38.441Z,7.47
2017-09-17T01:11:38.406Z,7.45
2017-09-17T01:12:38.370Z,7.38
2017-09-17T01:13:39.007Z,7.45
2017-09-17T01:14:39.035Z,7.40
2017-09-17T01:15:38.265Z,7.45
2017-09-17T01:16:38.230Z,7.40
2017-09-17T01:17:38.196Z,7.45
2017-09-17T01:18:38.157Z,7.43
2017-09-17T01:19:38.127Z,7.40
2017-09-17T01:20:38.093Z,7.43
2017-09-17T01:21:38.054Z,7.39
2017-09-17T01:22:38.019Z,7.43
2017-09-17T01:23:37.985Z,7.36
2017-09-17T01:24:37.950Z,7.43
2017-09-17T01:25:37.920Z,7.39
2017-09-17T01:26:37.879Z,7.38
2017-09-17T01:27:37.868Z,7.36
2017-09-17T01:28:37.812Z,7.29
2017-09-17T01:29:37.775Z,7.25
2017-09-17T01:30:37.738Z,7.18
2017-09-17T01:31:37.704Z,7.23
2017-09-17T01:32:37.667Z,7.23
2017-09-17T01:33:37.633Z,7.24
2017-09-17T01:34:37.598Z,7.29
2017-09-17T01:35:37.564Z,7.20
2017-09-17T01:36:37.528Z,7.20
2017-09-17T01:37:37.491Z,7.23
2017-09-17T01:38:37.458Z,7.29
2017-09-17T01:39:37.423Z,7.28
2017-09-17T01:40:37.672Z,7.21
2017-09-17T01:41:37.352Z,7.18
2017-09-17T01:42:37.319Z,7.23
2017-09-17T01:43:37.285Z,7.14
2017-09-17T01:44:37.247Z,7.18
2017-09-17T01:45:37.210Z,7.21
2017-09-17T01:46:37.176Z,7.17
2017-09-17T01:47:37.149Z,7.20
2017-09-17T01:48:37.106Z,7.20
2017-09-17T01:49:37.070Z,7.06
2017-09-17T01:50:37.036Z,7.07
2017-09-17T01:51:37.000Z,7.20
2017-09-17T01:52:36.965Z,7.07
2017-09-17T01:53:36.930Z,7.10
2017-09-17T01:54:36.896Z,7.14
2017-09-17T01:55:36.860Z,7.18
2017-09-17T01:56:36.823Z,7.20
2017-09-17T01:57:36.788Z,7.29
2017-09-17T01:58:36.754Z,7.32
2017-09-17T01:59:36.718Z,7.29
2017-09-17T02:00:36.683Z,7.35
2017-09-17T02:01:36.649Z,7.42
2017-09-17T02:02:36.612Z,7.40
2017-09-17T02:03:36.573Z,7.43
2017-09-17T02:04:36.542Z,7.38
2017-09-17T02:05:36.507Z,7.40
2017-09-17T02:06:36.473Z,7.39
2017-09-17T02:07:36.438Z,7.43
2017-09-17T02:08:36.403Z,7.45
2017-09-17T02:09:36.366Z,7.38
2017-09-17T02:10:36.334Z,7.35
2017-09-17T02:11:36.297Z,7.42
2017-09-17T02:12:36.261Z,7.45
2017-09-17T02:13:36.227Z,7.33
2017-09-17T02:14:36.193Z,7.39
2017-09-17T02:15:36.159Z,7.45
2017-09-17T02:16:36.124Z,7.42
2017-09-17T02:17:36.087Z,7.42
2017-09-17T02:18:36.053Z,7.38
2017-09-17T02:19:36.018Z,7.35
2017-09-17T02:20:35.984Z,7.18
2017-09-17T02:21:35.947Z,7.28
2017-09-17T02:22:35.913Z,7.17
2017-09-17T02:23:35.878Z,7.18
2017-09-17T02:24:35.844Z,7.11
2017-09-17T02:25:35.807Z,7.06
2017-09-17T02:26:35.772Z,7.06
2017-09-17T02:27:35.738Z,7.00
2017-09-17T02:28:35.720Z,7.06
2017-09-17T02:29:35.668Z,7.15
2017-09-17T02:30:35.633Z,7.07
2017-09-17T02:31:36.056Z,7.05
2017-09-17T02:32:35.563Z,6.99
2017-09-17T02:33:35.527Z,7.02
2017-09-17T02:34:35.494Z,6.89
2017-09-17T02:35:35.457Z,7.06
2017-09-17T02:36:35.421Z,6.95
2017-09-17T02:37:35.385Z,6.99
2017-09-17T02:38:35.352Z,7.07
2017-09-17T02:39:35.318Z,7.03
2017-09-17T02:40:35.287Z,7.15
2017-09-17T02:41:35.247Z,7.11
2017-09-17T02:42:35.212Z,7.18
2017-09-17T02:43:35.175Z,7.20
2017-09-17T02:44:35.140Z,7.21
2017-09-17T02:45:35.107Z,7.29
2017-09-17T02:46:35.070Z,7.20
2017-09-17T02:47:35.035Z,7.29
2017-09-17T02:48:35.002Z,7.35
2017-09-17T02:49:34.964Z,7.31
2017-09-17T02:50:34.929Z,7.33
2017-09-17T02:51:34.895Z,7.38
2017-09-17T02:52:34.860Z,7.32
2017-09-17T02:53:34.822Z,7.35
2017-09-17T02:54:34.789Z,7.38
2017-09-17T02:55:34.753Z,7.40
2017-09-17T02:56:34.720Z,7.29
2017-09-17T02:57:34.684Z,7.18
2017-09-17T02:58:34.648Z,7.20
2017-09-17T02:59:34.613Z,7.17
2017-09-17T03:00:34.578Z,7.10
2017-09-17T03:01:34.545Z,7.03
2017-09-17T03:02:34.563Z,7.07
2017-09-17T03:03:34.474Z,7.10
2017-09-17T03:04:34.438Z,7.02
2017-09-17T03:05:34.404Z,7.10
2017-09-17T03:06:34.369Z,7.07
2017-09-17T03:07:34.342Z,7.07
2017-09-17T03:08:34.302Z,7.03
2017-09-17T03:09:34.266Z,7.15
2017-09-17T03:10:34.231Z,7.02
2017-09-17T03:11:34.196Z,7.14
2017-09-17T03:12:34.159Z,7.17
2017-09-17T03:13:34.126Z,7.20
2017-09-17T03:14:34.090Z,7.25
2017-09-17T03:15:34.056Z,7.23
2017-09-17T03:16:34.023Z,7.18
2017-09-17T03:17:33.987Z,7.20
2017-09-17T03:18:33.953Z,7.20
2017-09-17T03:19:33.917Z,7.25
2017-09-17T03:20:33.880Z,7.35
2017-09-17T03:21:33.847Z,7.36
2017-09-17T03:22:33.812Z,7.40
2017-09-17T03:23:33.775Z,7.40
2017-09-17T03:24:33.742Z,7.29
2017-09-17T03:25:33.708Z,7.39
2017-09-17T03:26:33.674Z,7.42
2017-09-17T03:27:33.639Z,7.39
2017-09-17T03:28:33.605Z,7.42
2017-09-17T03:29:33.568Z,7.50
2017-09-17T03:30:33.533Z,7.43
2017-09-17T03:31:33.499Z,7.58
2017-09-17T03:32:33.464Z,7.60
2017-09-17T03:33:33.430Z,7.67
2017-09-17T03:34:33.394Z,7.75
2017-09-17T03:35:33.359Z,7.73
2017-09-17T03:36:33.324Z,7.66
2017-09-17T03:37:33.292Z,7.79
2017-09-17T03:38:33.257Z,7.79
2017-09-17T03:39:33.309Z,7.77
2017-09-17T03:40:33.186Z,7.83
2017-09-17T03:41:33.152Z,7.77
2017-09-17T03:42:33.119Z,7.80
2017-09-17T03:43:33.080Z,7.77
2017-09-17T03:44:33.050Z,7.79
2017-09-17T03:45:33.013Z,7.80
2017-09-17T03:46:32.980Z,7.82
2017-09-17T03:47:32.944Z,7.80
2017-09-17T03:48:32.907Z,7.83
2017-09-17T03:49:32.875Z,7.80
2017-09-17T03:50:32.841Z,7.82
2017-09-17T03:51:32.807Z,7.79
2017-09-17T03:52:32.769Z,7.79
2017-09-17T03:53:32.737Z,7.75
2017-09-17T03:54:32.700Z,7.76
2017-09-17T03:55:32.666Z,7.88
2017-09-17T03:56:32.632Z,7.85
2017-09-17T03:57:32.597Z,7.88
2017-09-17T03:58:32.564Z,7.94
2017-09-17T03:59:32.527Z,7.94
2017-09-17T04:00:32.493Z,7.94
2017-09-17T04:01:32.458Z,7.93
2017-09-17T04:02:32.425Z,8.00
2017-09-17T04:03:32.389Z,8.01
2017-09-17T04:04:33.078Z,7.98
2017-09-17T04:05:32.318Z,8.01
2017-09-17T04:06:32.283Z,8.01
2017-09-17T04:07:32.250Z,7.97
2017-09-17T04:08:32.215Z,7.97
2017-09-17T04:09:32.181Z,7.98
2017-09-17T04:10:32.146Z,8.03
2017-09-17T04:11:32.113Z,8.00
2017-09-17T04:12:32.075Z,8.03
2017-09-17T04:13:32.040Z,8.05
2017-09-17T04:14:32.007Z,8.05
2017-09-17T04:15:31.972Z,8.06
2017-09-17T04:16:31.938Z,8.12
2017-09-17T04:17:31.904Z,8.15
2017-09-17T04:18:31.872Z,8.10
2017-09-17T04:19:31.829Z,8.20
2017-09-17T04:20:31.798Z,8.13
2017-09-17T04:21:32.458Z,8.15
2017-09-17T04:22:31.731Z,8.19
2017-09-17T04:23:31.696Z,8.16
2017-09-17T04:24:31.660Z,8.13
2017-09-17T04:25:31.626Z,8.33
2017-09-17T04:26:31.591Z,8.33
2017-09-17T04:27:31.560Z,8.36
2017-09-17T04:28:31.524Z,8.30
2017-09-17T04:29:31.487Z,8.31
2017-09-17T04:30:31.453Z,8.41
2017-09-17T04:31:31.421Z,8.34
2017-09-17T04:32:31.384Z,8.45
2017-09-17T04:33:31.350Z,8.42
2017-09-17T04:34:32.064Z,8.53
2017-09-17T04:35:31.282Z,8.48
2017-09-17T04:36:31.248Z,8.52
2017-09-17T04:37:31.213Z,8.56
2017-09-17T04:38:31.178Z,8.53
2017-09-17T04:39:31.144Z,8.51
2017-09-17T04:40:31.110Z,8.51
2017-09-17T04:41:31.072Z,8.53
2017-09-17T04:42:31.040Z,8.52
2017-09-17T04:43:31.006Z,8.48
2017-09-17T04:44:30.972Z,8.48
2017-09-17T04:45:30.938Z,8.49
2017-09-17T04:46:30.903Z,8.53
2017-09-17T04:47:31.385Z,8.55
2017-09-17T04:48:30.836Z,8.56
2017-09-17T04:49:30.801Z,8.63
2017-09-17T04:50:30.767Z,8.55
2017-09-17T04:51:30.743Z,8.55
2017-09-17T04:52:30.700Z,8.53
2017-09-17T04:53:30.666Z,8.58
2017-09-17T04:54:30.632Z,8.56
2017-09-17T04:55:30.598Z,8.49
2017-09-17T04:56:30.562Z,8.55
2017-09-17T04:57:30.527Z,8.55
2017-09-17T04:58:30.495Z,8.52
2017-09-17T04:59:30.457Z,8.49
2017-09-17T05:00:30.429Z,8.56
2017-09-17T05:01:30.391Z,8.55
2017-09-17T05:02:30.355Z,8.51
2017-09-17T05:03:30.324Z,8.63
2017-09-17T05:04:30.287Z,8.52
2017-09-17T05:05:30.255Z,8.51
2017-09-17T05:06:30.220Z,8.48
2017-09-17T05:07:30.187Z,8.53
2017-09-17T05:08:30.150Z,8.49
2017-09-17T05:09:30.117Z,8.53
2017-09-17T05:10:30.086Z,8.55
2017-09-17T05:11:30.048Z,8.55
2017-09-17T05:12:30.013Z,8.53
2017-09-17T05:13:29.975Z,8.64
2017-09-17T05:14:29.945Z,8.53
2017-09-17T05:15:29.912Z,8.64
2017-09-17T05:16:29.876Z,8.55
2017-09-17T05:17:29.843Z,8.53
2017-09-17T05:18:29.805Z,8.64
2017-09-17T05:19:29.773Z,8.67
2017-09-17T05:20:29.741Z,8.63
2017-09-17T05:21:29.704Z,8.58
2017-09-17T05:22:29.672Z,8.69
2017-09-17T05:23:29.637Z,8.66
2017-09-17T05:24:29.603Z,8.69
2017-09-17T05:25:29.569Z,8.67
2017-09-17T05:26:29.534Z,8.70
2017-09-17T05:27:29.500Z,8.69
2017-09-17T05:28:29.465Z,8.73
2017-09-17T05:29:29.430Z,8.71
2017-09-17T05:30:29.395Z,8.71
2017-09-17T05:31:29.360Z,8.71
2017-09-17T05:32:29.328Z,8.69
2017-09-17T05:33:29.295Z,8.71
2017-09-17T05:34:29.258Z,8.76
2017-09-17T05:35:29.226Z,8.70
2017-09-17T05:36:29.194Z,8.70
2017-09-17T05:37:29.157Z,8.70
2017-09-17T05:38:29.124Z,8.79
2017-09-17T05:39:29.089Z,8.70
2017-09-17T05:40:29.054Z,8.67
2017-09-17T05:41:29.025Z,8.70
2017-09-17T05:42:28.987Z,8.70
2017-09-17T05:43:28.953Z,8.76
2017-09-17T05:44:28.917Z,8.74
2017-09-17T05:45:28.885Z,8.71
2017-09-17T05:46:28.851Z,8.82
2017-09-17T05:47:28.818Z,8.70
2017-09-17T05:48:28.782Z,8.76
2017-09-17T05:49:28.750Z,8.88
2017-09-17T05:50:28.732Z,8.79
2017-09-17T05:51:28.679Z,8.79
2017-09-17T05:52:28.646Z,8.95
2017-09-17T05:53:28.611Z,8.84
2017-09-17T05:54:28.576Z,8.87
2017-09-17T05:55:28.543Z,8.85
2017-09-17T05:56:28.567Z,8.89
2017-09-17T05:57:28.474Z,9.00
2017-09-17T05:58:28.441Z,9.03
2017-09-17T05:59:28.407Z,8.95
2017-09-17T06:00:28.843Z,9.06
2017-09-17T06:01:28.339Z,9.11
2017-09-17T06:02:28.305Z,9.03
2017-09-17T06:03:28.272Z,9.11
2017-09-17T06:04:28.237Z,9.11
2017-09-17T06:05:28.204Z,9.13
2017-09-17T06:06:28.169Z,9.11
2017-09-17T06:07:28.136Z,9.18
2017-09-17T06:08:28.102Z,9.26
2017-09-17T06:09:28.069Z,9.18
2017-09-17T06:10:28.036Z,9.22
2017-09-17T06:11:28.002Z,9.21
2017-09-17T06:12:27.971Z,9.26
2017-09-17T06:13:27.934Z,9.28
2017-09-17T06:14:27.901Z,9.29
2017-09-17T06:15:27.991Z,9.39
2017-09-17T06:16:27.833Z,9.36
2017-09-17T06:17:27.800Z,9.40
2017-09-17T06:18:27.767Z,9.29
2017-09-17T06:19:28.267Z,9.36
2017-09-17T06:20:27.697Z,9.41
2017-09-17T06:21:27.666Z,9.34
2017-09-17T06:22:27.631Z,9.29
2017-09-17T06:23:27.598Z,9.47
2017-09-17T06:24:27.564Z,9.46
2017-09-17T06:25:27.531Z,9.46
2017-09-17T06:26:27.497Z,9.41
2017-09-17T06:27:27.467Z,9.41
2017-09-17T06:28:27.431Z,9.54
2017-09-17T06:29:27.397Z,9.47
2017-09-17T06:30:27.364Z,9.50
2017-09-17T06:31:27.332Z,9.54
2017-09-17T06:32:27.295Z,9.46
2017-09-17T06:33:27.264Z,9.56
2017-09-17T06:34:27.231Z,9.58
2017-09-17T06:35:27.195Z,9.61
2017-09-17T06:36:27.162Z,9.54
2017-09-17T06:37:27.129Z,9.58
2017-09-17T06:38:27.098Z,9.56
2017-09-17T06:39:27.063Z,9.66
2017-09-17T06:40:27.035Z,9.66
2017-09-17T06:41:26.997Z,9.68
2017-09-17T06:42:26.964Z,9.68
2017-09-17T06:43:26.930Z,9.66
2017-09-17T06:44:26.899Z,9.73
2017-09-17T06:45:26.865Z,9.68
2017-09-17T06:46:26.831Z,9.84
2017-09-17T06:47:26.798Z,9.72
2017-09-17T06:48:26.764Z,9.84
2017-09-17T06:49:26.732Z,9.87
2017-09-17T06:50:26.697Z,9.86
2017-09-17T06:51:26.669Z,9.80
2017-09-17T06:52:26.634Z,9.89
2017-09-17T06:53:26.601Z,9.84
2017-09-17T06:54:26.568Z,9.92
2017-09-17T06:55:26.536Z,9.92
2017-09-17T06:56:26.501Z,9.94
2017-09-17T06:57:26.470Z,9.89
2017-09-17T06:58:26.436Z,9.91
2017-09-17T06:59:26.404Z,9.86
2017-09-17T07:00:26.370Z,9.82
2017-09-17T07:01:26.338Z,9.80
2017-09-17T07:02:26.306Z,9.74
2017-09-17T07:03:26.271Z,9.77
2017-09-17T07:04:26.240Z,9.68
2017-09-17T07:05:26.220Z,9.83
2017-09-17T07:06:26.174Z,9.82
2017-09-17T07:07:26.144Z,9.89
2017-09-17T07:08:26.108Z,9.87
2017-09-17T07:09:26.079Z,9.87
2017-09-17T07:10:26.043Z,9.86
2017-09-17T07:11:26.011Z,9.98
2017-09-17T07:12:25.977Z,9.94
2017-09-17T07:13:25.943Z,10.05
2017-09-17T07:14:25.915Z,10.10
2017-09-17T07:15:25.879Z,10.15
2017-09-17T07:16:25.847Z,10.31
2017-09-17T07:17:25.821Z,10.37
2017-09-17T07:18:25.783Z,10.41
2017-09-17T07:19:25.752Z,10.48
2017-09-17T07:20:25.718Z,10.57
2017-09-17T07:21:25.687Z,10.59
2017-09-17T07:22:26.436Z,10.74
2017-09-17T07:23:25.624Z,10.63
2017-09-17T07:24:25.592Z,10.89
2017-09-17T07:25:25.579Z,10.89
2017-09-17T07:26:25.530Z,10.90
2017-09-17T07:27:25.497Z,10.96
2017-09-17T07:28:25.467Z,11.10
2017-09-17T07:29:25.438Z,11.19
2017-09-17T07:30:25.412Z,11.50
2017-09-17T07:31:25.377Z,11.60
2017-09-17T07:32:25.345Z,11.73
2017-09-17T07:33:25.319Z,11.84
2017-09-17T07:34:25.287Z,11.83
2017-09-17T07:35:25.258Z,11.87
2017-09-17T07:36:25.227Z,11.95
2017-09-17T07:37:25.197Z,11.84
2017-09-17T07:38:25.170Z,11.81
2017-09-17T07:39:25.186Z,11.75
2017-09-17T07:40:25.109Z,11.63
2017-09-17T07:41:25.082Z,11.62
2017-09-17T07:42:25.052Z,11.59
2017-09-17T07:43:25.026Z,11.54
2017-09-17T07:44:24.995Z,11.47
2017-09-17T07:45:24.965Z,11.48
2017-09-17T07:46:24.939Z,11.48
2017-09-17T07:47:24.909Z,11.48
2017-09-17T07:48:24.878Z,11.51
2017-09-17T07:49:24.848Z,11.40
2017-09-17T07:50:24.818Z,11.47
2017-09-17T07:51:24.789Z,11.55
2017-09-17T07:52:24.760Z,11.62
2017-09-17T07:53:24.729Z,11.59
2017-09-17T07:54:24.699Z,11.69
2017-09-17T07:55:24.671Z,11.80
2017-09-17T07:56:24.640Z,11.81
2017-09-17T07:57:24.610Z,11.91
2017-09-17T07:58:24.580Z,11.97
2017-09-17T07:59:24.555Z,12.00
2017-09-17T08:00:24.520Z,12.02
2017-09-17T08:01:24.493Z,12.10
2017-09-17T08:02:24.462Z,12.17
2017-09-17T08:03:24.431Z,12.20
2017-09-17T08:04:24.401Z,12.24
2017-09-17T08:05:24.371Z,12.21
2017-09-17T08:06:24.342Z,12.27
2017-09-17T08:07:24.314Z,12.28
2017-09-17T08:08:24.281Z,12.12
2017-09-17T08:09:24.280Z,12.17
2017-09-17T08:10:24.225Z,12.10
2017-09-17T08:11:24.193Z,12.09
2017-09-17T08:12:24.162Z,12.06
2017-09-17T08:13:24.133Z,12.13
2017-09-17T08:14:24.102Z,12.21
2017-09-17T08:15:24.074Z,12.29
2017-09-17T08:16:24.043Z,12.39
2017-09-17T08:17:24.013Z,12.39
2017-09-17T08:18:24.097Z,12.55
2017-09-17T08:19:23.953Z,12.62
2017-09-17T08:20:23.924Z,12.61
2017-09-17T08:21:23.898Z,12.60
2017-09-17T08:22:23.864Z,12.55
2017-09-17T08:23:23.835Z,12.55
2017-09-17T08:24:23.805Z,12.61
2017-09-17T08:25:23.784Z,12.65
2017-09-17T08:26:23.744Z,12.72
2017-09-17T08:27:23.721Z,12.90
2017-09-17T08:28:23.690Z,13.03
2017-09-17T08:29:23.657Z,13.11
2017-09-17T08:30:23.625Z,13.11
2017-09-17T08:31:23.597Z,13.09
2017-09-17T08:32:23.568Z,13.08
2017-09-17T08:33:23.537Z,13.00
2017-09-17T08:34:23.508Z,13.16
2017-09-17T08:35:23.482Z,13.12
2017-09-17T08:36:23.458Z,13.09
2017-09-17T08:37:23.421Z,13.08
2017-09-17T08:38:23.392Z,13.16
2017-09-17T08:39:23.364Z,13.27
2017-09-17T08:40:23.346Z,13.37
2017-09-17T08:41:23.306Z,13.49
2017-09-17T08:42:23.277Z,13.53
2017-09-17T08:43:23.248Z,13.62
2017-09-17T08:44:23.221Z,13.79
2017-09-17T08:45:23.190Z,13.99
2017-09-17T08:46:23.162Z,14.07
2017-09-17T08:47:23.135Z,14.14
2017-09-17T08:48:23.106Z,14.30
2017-09-17T08:49:23.077Z,14.33
2017-09-17T08:50:23.050Z,14.50
2017-09-17T08:51:23.021Z,14.81
2017-09-17T08:52:22.995Z,15.09
2017-09-17T08:53:22.965Z,15.07
2017-09-17T08:54:22.941Z,15.44
2017-09-17T08:55:22.915Z,15.72
2017-09-17T08:56:22.886Z,15.88
2017-09-17T08:57:22.859Z,15.91
2017-09-17T08:58:22.835Z,16.15
2017-09-17T08:59:22.806Z,16.05
2017-09-17T09:00:22.781Z,16.10
2017-09-17T09:01:22.755Z,16.41
2017-09-17T09:02:22.729Z,16.56
2017-09-17T09:03:22.703Z,16.68
2017-09-17T09:04:22.677Z,16.71
2017-09-17T09:05:22.653Z,17.11
2017-09-17T09:06:22.628Z,17.38
2017-09-17T09:07:22.602Z,17.56
2017-09-17T09:08:22.577Z,17.48
2017-09-17T09:09:22.553Z,17.52
2017-09-17T09:10:22.529Z,17.46
2017-09-17T09:11:22.505Z,17.24
2017-09-17T09:12:22.501Z,17.16
2017-09-17T09:13:22.459Z,17.11
2017-09-17T09:14:22.434Z,17.11
2017-09-17T09:15:22.409Z,17.19
2017-09-17T09:16:22.384Z,17.48
2017-09-17T09:17:22.361Z,17.70
2017-09-17T09:18:22.338Z,18.07
2017-09-17T09:19:22.316Z,18.38
2017-09-17T09:20:22.293Z,18.50
2017-09-17T09:21:22.269Z,18.52
2017-09-17T09:22:22.248Z,18.55
2017-09-17T09:23:22.226Z,18.81
2017-09-17T09:24:22.206Z,19.04
2017-09-17T09:25:22.182Z,19.34
2017-09-17T09:26:22.160Z,19.62
2017-09-17T09:27:22.142Z,20.10
2017-09-17T09:28:22.122Z,20.48
2017-09-17T09:29:22.097Z,20.90
2017-09-17T09:30:22.079Z,21.03
2017-09-17T09:31:22.059Z,21.20
2017-09-17T09:32:22.316Z,21.11
2017-09-17T09:33:22.019Z,21.30
2017-09-17T09:34:22.002Z,21.79
2017-09-17T09:35:21.982Z,22.13
2017-09-17T09:36:21.962Z,22.66
2017-09-17T09:37:21.945Z,23.34
2017-09-17T09:38:21.928Z,23.37
2017-09-17T09:39:21.908Z,23.65
2017-09-17T09:40:21.888Z,23.63
2017-09-17T09:41:21.870Z,23.41
2017-09-17T09:42:21.854Z,23.20
2017-09-17T09:43:21.837Z,23.44
2017-09-17T09:44:21.817Z,23.61
2017-09-17T09:45:21.801Z,24.18
2017-09-17T09:46:22.598Z,24.06
2017-09-17T09:47:21.767Z,24.01
2017-09-17T09:48:21.749Z,24.68
2017-09-17T09:49:21.732Z,25.13
2017-09-17T09:50:21.715Z,25.83
2017-09-17T09:51:21.696Z,25.91
2017-09-17T09:52:21.681Z,26.34
2017-09-17T09:53:21.663Z,26.41
2017-09-17T09:54:21.648Z,26.31
2017-09-17T09:55:21.633Z,25.44
2017-09-17T09:56:21.615Z,25.43
2017-09-17T09:57:21.598Z,25.41
2017-09-17T09:58:21.584Z,25.17
2017-09-17T09:59:21.566Z,24.91
2017-09-17T10:00:21.548Z,25.26
2017-09-17T10:01:21.531Z,25.55
2017-09-17T10:02:21.516Z,25.55
2017-09-17T10:03:21.499Z,25.99
2017-09-17T10:04:21.673Z,25.90
2017-09-17T10:05:21.465Z,26.70
2017-09-17T10:06:21.645Z,26.99
2017-09-17T10:07:21.433Z,27.02
2017-09-17T10:08:21.417Z,27.17
2017-09-17T10:09:21.401Z,26.51
2017-09-17T10:10:21.575Z,26.31
2017-09-17T10:11:21.371Z,26.37
2017-09-17T10:12:21.660Z,26.44
2017-09-17T10:13:21.339Z,26.55
2017-09-17T10:14:21.324Z,26.56
2017-09-17T10:15:21.304Z,27.08
2017-09-17T10:16:21.292Z,26.96
2017-09-17T10:17:21.276Z,27.42
2017-09-17T10:18:21.262Z,27.85
2017-09-17T10:19:21.246Z,27.86
2017-09-17T10:20:21.231Z,28.39
2017-09-17T10:21:21.218Z,28.30
2017-09-17T10:22:21.201Z,28.85
2017-09-17T10:23:21.186Z,28.84
2017-09-17T10:24:21.172Z,28.84
2017-09-17T10:25:21.157Z,28.62
2017-09-17T10:26:21.143Z,28.63
2017-09-17T10:27:21.129Z,28.47
2017-09-17T10:28:21.114Z,28.49
2017-09-17T10:29:21.100Z,29.01
2017-09-17T10:30:21.086Z,28.94
2017-09-17T10:31:21.072Z,28.96
2017-09-17T10:32:21.057Z,28.81
2017-09-17T10:33:21.043Z,28.88
2017-09-17T10:34:21.029Z,29.08
2017-09-17T10:35:21.017Z,29.39
2017-09-17T10:36:21.002Z,30.31
2017-09-17T10:37:20.988Z,30.30
2017-09-17T10:38:20.977Z,29.59
2017-09-17T10:39:20.961Z,29.08
2017-09-17T10:40:20.946Z,27.44
2017-09-17T10:41:20.932Z,27.40
2017-09-17T10:42:20.917Z,26.73
2017-09-17T10:43:20.902Z,26.56
2017-09-17T10:44:20.884Z,26.02
2017-09-17T10:45:20.869Z,25.73
2017-09-17T10:46:20.881Z,25.81
2017-09-17T10:47:20.835Z,25.81
2017-09-17T10:48:20.815Z,25.51
2017-09-17T10:49:20.803Z,25.13
2017-09-17T10:50:20.780Z,24.73
2017-09-17T10:51:20.762Z,24.29
2017-09-17T10:52:20.744Z,23.77
2017-09-17T10:53:20.725Z,23.63
2017-09-17T10:54:20.708Z,23.27
2017-09-17T10:55:20.687Z,23.06
2017-09-17T10:56:20.667Z,22.84
2017-09-17T10:57:20.650Z,23.66
2017-09-17T10:58:20.632Z,24.26
2017-09-17T10:59:20.610Z,24.55
2017-09-17T11:00:20.591Z,24.32
2017-09-17T11:01:20.572Z,24.18
2017-09-17T11:02:20.553Z,23.99
2017-09-17T11:03:20.533Z,23.59
2017-09-17T11:04:20.517Z,23.23
2017-09-17T11:05:20.493Z,23.08
2017-09-17T11:06:20.472Z,22.88
2017-09-17T11:07:20.453Z,22.81
2017-09-17T11:08:20.431Z,22.54
2017-09-17T11:09:20.412Z,22.38
2017-09-17T11:10:20.391Z,22.28
2017-09-17T11:11:20.370Z,22.13
2017-09-17T11:12:20.349Z,22.00
2017-09-17T11:13:20.327Z,21.92
2017-09-17T11:14:20.304Z,21.67
2017-09-17T11:15:20.287Z,21.66
2017-09-17T11:16:20.261Z,21.57
2017-09-17T11:17:20.240Z,21.54
2017-09-17T11:18:20.216Z,21.37
2017-09-17T11:19:20.195Z,21.42
2017-09-17T11:20:20.172Z,21.32
2017-09-17T11:21:20.149Z,21.18
2017-09-17T11:22:20.127Z,21.06
2017-09-17T11:23:20.104Z,21.15
2017-09-17T11:24:20.080Z,20.92
2017-09-17T11:25:20.593Z,20.97
2017-09-17T11:26:20.040Z,20.78
2017-09-17T11:27:20.011Z,20.88
2017-09-17T11:28:20.003Z,20.75
2017-09-17T11:29:20.688Z,20.62
2017-09-17T11:30:19.940Z,20.50
2017-09-17T11:31:19.916Z,20.59
2017-09-17T11:32:19.892Z,20.62
2017-09-17T11:33:19.867Z,20.65
2017-09-17T11:34:19.844Z,20.72
2017-09-17T11:35:19.821Z,20.69
2017-09-17T11:36:19.796Z,20.69
2017-09-17T11:37:19.773Z,20.81
2017-09-17T11:38:19.748Z,20.92
2017-09-17T11:39:19.724Z,21.07
2017-09-17T11:40:19.700Z,21.15
2017-09-17T11:41:19.676Z,21.27
2017-09-17T11:42:19.654Z,21.37
2017-09-17T11:43:19.630Z,21.60
2017-09-17T11:44:19.605Z,21.73
2017-09-17T11:45:19.582Z,21.82
2017-09-17T11:46:19.559Z,22.76
2017-09-17T11:47:19.811Z,24.18
2017-09-17T11:48:19.513Z,24.91
2017-09-17T11:49:19.492Z,26.25
2017-09-17T11:50:19.472Z,27.42
2017-09-17T11:51:19.451Z,27.60
2017-09-17T11:52:19.431Z,27.21
2017-09-17T11:53:19.437Z,27.14
2017-09-17T11:54:19.420Z,26.84
2017-09-17T11:55:19.372Z,26.63
2017-09-17T11:56:19.351Z,26.48
2017-09-17T11:57:19.331Z,26.40
2017-09-17T11:58:19.312Z,25.98
2017-09-17T11:59:19.292Z,25.54
2017-09-17T12:00:19.275Z,25.23
2017-09-17T12:01:19.253Z,24.70
2017-09-17T12:02:19.498Z,24.02
2017-09-17T12:03:19.212Z,23.62
2017-09-17T12:04:19.192Z,23.43
2017-09-17T12:05:19.164Z,22.94
2017-09-17T12:06:19.150Z,22.81
2017-09-17T12:07:19.133Z,22.36
2017-09-17T12:08:19.108Z,22.47
2017-09-17T12:09:19.086Z,22.43
2017-09-17T12:10:19.072Z,22.20
2017-09-17T12:11:19.045Z,21.82
2017-09-17T12:12:19.023Z,21.73
2017-09-17T12:13:19.002Z,21.51
2017-09-17T12:14:18.980Z,21.45
2017-09-17T12:15:18.958Z,21.33
2017-09-17T12:16:18.935Z,21.18
2017-09-17T12:17:18.912Z,21.18
2017-09-17T12:18:18.893Z,21.42
2017-09-17T12:19:18.870Z,22.30
2017-09-17T12:20:18.846Z,23.05
2017-09-17T12:21:18.825Z,23.73
2017-09-17T12:22:18.804Z,24.60
2017-09-17T12:23:18.783Z,25.95
2017-09-17T12:24:18.764Z,26.48
2017-09-17T12:25:18.742Z,26.52
2017-09-17T12:26:18.721Z,26.00
2017-09-17T12:27:18.703Z,25.90
2017-09-17T12:28:18.681Z,25.84
2017-09-17T12:29:18.662Z,25.55
2017-09-17T12:30:18.642Z,25.21
2017-09-17T12:31:18.621Z,24.73
2017-09-17T12:32:18.601Z,24.55
2017-09-17T12:33:18.579Z,24.36
2017-09-17T12:34:18.563Z,23.88
2017-09-17T12:35:18.539Z,23.69
2017-09-17T12:36:18.518Z,23.44
2017-09-17T12:37:18.496Z,23.28
2017-09-17T12:38:18.475Z,22.99
2017-09-17T12:39:18.456Z,22.65
2017-09-17T12:40:18.434Z,22.35
2017-09-17T12:41:18.408Z,22.48
2017-09-17T12:42:18.393Z,22.73
2017-09-17T12:43:18.372Z,22.90
2017-09-17T12:44:19.145Z,22.99
2017-09-17T12:45:18.326Z,22.98
2017-09-17T12:46:18.307Z,22.96
2017-09-17T12:47:18.285Z,22.87
2017-09-17T12:48:18.264Z,23.40
2017-09-17T12:49:18.242Z,24.58
2017-09-17T12:50:18.227Z,25.66
2017-09-17T12:51:18.201Z,26.52
2017-09-17T12:52:18.181Z,27.49
2017-09-17T12:53:18.165Z,28.11
2017-09-17T12:54:18.144Z,27.67
2017-09-17T12:55:18.124Z,26.99
2017-09-17T12:56:18.110Z,27.29
2017-09-17T12:57:18.307Z,28.35
2017-09-17T12:58:18.066Z,28.94
2017-09-17T12:59:18.298Z,29.50
2017-09-17T13:00:18.028Z,30.08
2017-09-17T13:01:18.010Z,30.02
2017-09-17T13:02:17.993Z,30.43
2017-09-17T13:03:17.975Z,30.51
2017-09-17T13:04:17.957Z,30.81
2017-09-17T13:05:17.943Z,31.47
2017-09-17T13:06:17.924Z,31.49